createdAt,value
2018-08-10T20:30:01.934Z,99.90
2018-08-10T20:32:29.933Z,99.90
2018-08-10T20:34:57.957Z,1.00
2018-08-10T20:37:25.966Z,99.90
2018-08-10T20:39:54.033Z,99.90
2018-08-10T20:42:22.037Z,99.90
2018-08-10T20:44:50.054Z,99.90
2018-08-10T20:47:18.077Z,99.90
2018-08-10T20:49:46.086Z,99.90
2018-08-10T20:52:14.085Z,99.90
2018-08-10T20:54:42.085Z,99.90
2018-08-10T20:57:10.132Z,99.90
2018-08-10T20:59:38.125Z,99.90
2018-08-10T21:02:06.374Z,99.90
2018-08-10T21:04:34.377Z,60.70
2018-08-10T21:07:02.433Z,8.30
2018-08-10T21:09:30.446Z,56.10
2018-08-10T21:11:58.430Z,1.00
2018-08-10T21:14:26.447Z,1.00
2018-08-10T21:16:54.457Z,30.20
2018-08-10T21:19:22.470Z,99.90
2018-08-10T21:21:50.469Z,99.90
2018-08-10T21:24:18.503Z,99.90
2018-08-10T21:26:46.538Z,99.90
2018-08-10T21:29:14.548Z,99.90
2018-08-10T21:31:42.553Z,1.00
2018-08-10T21:34:10.552Z,1.00
2018-08-10T21:36:38.926Z,99.90
2018-08-10T21:39:08.201Z,1.00
2018-08-10T21:41:36.196Z,1.00
2018-08-10T21:44:04.205Z,1.00
2018-08-10T21:46:32.245Z,1.00
2018-08-10T21:49:00.245Z,1.00
2018-08-10T21:51:28.261Z,1.00
2018-08-10T21:53:56.342Z,1.00
2018-08-10T21:56:24.333Z,1.00
2018-08-10T21:58:52.362Z,1.00
2018-08-10T22:01:20.390Z,1.00
2018-08-10T22:03:48.395Z,1.00
2018-08-10T22:06:16.381Z,1.00
2018-08-10T22:08:44.369Z,1.00
2018-08-10T22:11:12.369Z,1.00
2018-08-10T22:13:45.859Z,1.00
2018-08-10T22:16:19.229Z,1.00
2018-08-10T22:18:52.687Z,1.00
2018-08-10T22:21:20.695Z,1.00
2018-08-10T22:23:48.678Z,1.00
2018-08-10T22:26:16.721Z,50.40
2018-08-10T22:28:44.702Z,10.10
2018-08-10T22:31:12.720Z,11.60
2018-08-10T22:33:40.732Z,14.30
2018-08-10T22:36:08.747Z,1.00
2018-08-10T22:38:36.745Z,1.00
2018-08-10T22:41:04.744Z,12.90
2018-08-10T22:43:32.737Z,1.00
2018-08-10T22:46:00.743Z,1.00
2018-08-10T22:48:28.743Z,1.00
2018-08-10T22:50:56.767Z,1.00
2018-08-10T22:53:24.792Z,1.00
2018-08-10T22:55:52.796Z,1.00
2018-08-10T22:58:20.789Z,1.00
2018-08-10T23:00:48.766Z,20.50
2018-08-10T23:03:16.805Z,61.60
2018-08-10T23:05:44.833Z,99.90
2018-08-10T23:08:12.861Z,99.90
2018-08-10T23:10:40.853Z,85.10
2018-08-10T23:13:08.863Z,87.80
2018-08-10T23:15:36.878Z,99.90
2018-08-10T23:18:05.044Z,99.90
2018-08-10T23:20:33.107Z,99.90
2018-08-10T23:23:03.081Z,99.90
2018-08-10T23:25:31.121Z,99.90
2018-08-10T23:27:59.140Z,99.90
2018-08-10T23:30:27.209Z,99.90
2018-08-10T23:32:55.153Z,99.90
2018-08-10T23:35:23.153Z,99.90
2018-08-10T23:37:51.168Z,99.90
2018-08-10T23:40:19.174Z,99.90
2018-08-10T23:42:47.201Z,99.90
2018-08-10T23:45:15.605Z,99.90
2018-08-10T23:47:44.245Z,99.90
2018-08-10T23:50:14.887Z,99.90
2018-08-10T23:52:43.293Z,99.90
2018-08-10T23:55:11.625Z,99.90
2018-08-10T23:57:40.605Z,99.90
